Main page
METAR-TAF:

METAR-TAF

Airports :

Philip S. W. Goldson International Airport

Belize City, Belize

latitude: 17-32N, longitude: 088-18W, elevation: 5 m

Current weather observation

The report was made 1 hour and 1 minutes ago, at 17:00 UTC
Wind 9 kt from the East
Temperature 31°C
Humidity 75%
Pressure 1016 hPa
Visibility 10 km or more
Scattered clouds at a height of 2400 ft

METAR: MZBZ 241700Z 08009KT 9999 SCT024 31/26 A3000 Q1016 NOSIG

Time: 12:01 (18:01 UTC)

Forecast

The report was made 3 hours and 1 minutes ago, at 15:00 UTC
Forecast valid from 24 at 18 UTC to 25 at 18 UTC
Wind 8 kt from the East
Visibility 10 km or more
Scattered clouds at a height of 2400 ft
Probability 30% :
Temporary
from 25 at 11 UTC to 25 at 17 UTC
Visibility: 5000 m
Broken clouds at a height of 1500 ft
rain showers

TAF: MZBZ 241500Z 2418/2518 09008KT 9999 SCT024 PROB30 TEMPO 2511/2517 5000 SHRA BKN015

Weather observations and forecasts of more than 4000 airports (METAR and TAF reports).

The available stations are represented by yellow and red dots on the map.

Hover mouse over dot to see the name of the station.

Then click to see weather observations and forecasts.

To change the map : click on the green buttons with a black cross to zoom in, on the green button with a dash to zoom out, or on the green arrows for adjacent maps.


METAR-TAF: